WetterOnline ( http://www.wetteronline.de )

Wetter aktuell Boizenburg

Aktuelles Wetter: Boizenburg (46m)

6-stündlich | Neueste Meldungen
Ortszeit Temperatur Wetter
Fr, 19.10. 14:00 12.9° C bewölkt
Fr, 19.10. 8:00 3.4° C bewölkt
Fr, 19.10. 2:00 5.2° C wolkenlos
Do, 18.10. 20:00 9.1° C wolkenlos
Do, 18.10. 14:00 16.5° C bedeckt
Do, 18.10. 8:00 12.6° C bewölkt
Do, 18.10. 2:00 12.4° C leicht bewölkt
Mi, 17.10. 20:00 17.1° C wolkig
Ortszeit Temperatur Wetter
Fr, 19.10. 15:00 12.6° C wolkenlos
Fr, 19.10. 14:50 12.6° C wolkenlos
Fr, 19.10. 14:40 12.8° C fast wolkenlos
Fr, 19.10. 14:30 12.2° C wolkig
Fr, 19.10. 14:20 12.2° C wolkig
Fr, 19.10. 14:10 12.9° C bedeckt
Fr, 19.10. 14:00 12.9° C bewölkt
Fr, 19.10. 13:30 11.1° C wolkig
Fr, 19.10. 13:00 12.1° C leicht bewölkt
Fr, 19.10. 12:30 11.4° C leicht bewölkt
Fr, 19.10. 12:00 10.2° C wolkig
Ortszeit Relative Feuchte Sichtweite
Fr, 19.10. 14:00 57% 40 km
Fr, 19.10. 8:00 100% 5.0 km
Fr, 19.10. 2:00 97% 30 km
Do, 18.10. 20:00 93% 40 km
Do, 18.10. 14:00 67% 17 km
Do, 18.10. 8:00 97% 4.0 km
Do, 18.10. 2:00 96% 1.7 km
Mi, 17.10. 20:00 68% 16 km
Ortszeit Relative Feuchte Sichtweite
Fr, 19.10. 15:00 54% 45 km
Fr, 19.10. 14:50 54% -
Fr, 19.10. 14:40 52% -
Fr, 19.10. 14:30 53% 30 km
Fr, 19.10. 14:20 53% -
Fr, 19.10. 14:10 54% -
Fr, 19.10. 14:00 57% 40 km
Fr, 19.10. 13:30 63% 45 km
Fr, 19.10. 13:00 59% 40 km
Fr, 19.10. 12:30 67% 30 km
Fr, 19.10. 12:00 75% 30 km
Ortszeit Niederschlagsmenge Niederschlagsart
Fr, 19.10. 14:00 0.0 l/m2 in 6 Std. -
Fr, 19.10. 8:00 0.0 l/m2 in 12 Std. -
Fr, 19.10. 2:00 0.0 l/m2 in 6 Std. -
Do, 18.10. 20:00 0.3 l/m2 in 12 Std. Regen
Do, 18.10. 14:00 0.0 l/m2 in 6 Std. -
Do, 18.10. 8:00 0.0 l/m2 in 12 Std. -
Do, 18.10. 2:00 0.0 l/m2 in 6 Std. -
Mi, 17.10. 20:00 0.0 l/m2 in 12 Std. -
Ortszeit Niederschlagsmenge Niederschlagsart
Fr, 19.10. 15:00 0.0 l/m2 in 1 Std. -
Fr, 19.10. 14:50 keine Meldung -
Fr, 19.10. 14:40 keine Meldung -
Fr, 19.10. 14:30 0.0 l/m2 in 1 Std. -
Fr, 19.10. 14:20 keine Meldung -
Fr, 19.10. 14:10 keine Meldung -
Fr, 19.10. 14:00 0.0 l/m2 in 1 Std. -
Fr, 19.10. 13:30 0.0 l/m2 in 1 Std. -
Fr, 19.10. 13:00 0.0 l/m2 in 1 Std. -
Fr, 19.10. 12:30 0.0 l/m2 in 1 Std. -
Fr, 19.10. 12:00 0.0 l/m2 in 1 Std. -
Ortszeit Stärke Spitze Richtung
km/h Bft. km/h Grad Sektor
Fr, 19.10. 14:00 7 2 18 280° W
Fr, 19.10. 8:00 6 1 13 270° W
Fr, 19.10. 2:00 4 1 11 310° NW
Do, 18.10. 20:00 6 1 26 310° NW
Do, 18.10. 14:00 7 2 22 330° NW
Do, 18.10. 8:00 7 2 22 270° W
Do, 18.10. 2:00 9 2 28 280° W
Mi, 17.10. 20:00 9 2 13 180° S
Ortszeit Stärke Spitze Richtung
km/h Bft. km/h Grad Sektor
Fr, 19.10. 15:00 9 2 19 260° W
Fr, 19.10. 14:50 9 2 - 260° W
Fr, 19.10. 14:40 7 2 - 260° W
Fr, 19.10. 14:30 6 1 17 300° NW
Fr, 19.10. 14:20 6 1 - 300° NW
Fr, 19.10. 14:10 7 2 - 320° NW
Fr, 19.10. 14:00 7 2 18 280° W
Fr, 19.10. 13:30 4 1 18 270° W
Fr, 19.10. 13:00 6 1 15 280° W
Fr, 19.10. 12:30 4 1 14 300° NW
Fr, 19.10. 12:00 4 1 11 290° W
Ortszeit Untergrenze Bedeckung Gattung
total tief tief mittel hoch
Fr, 19.10. 14:00 960 m 7/8 7/8 - - -
Fr, 19.10. 8:00 990 m 7/8 6/8 - - -
Fr, 19.10. 2:00 - 0/8 0/8 - - -
Do, 18.10. 20:00 - 0/8 0/8 - - -
Do, 18.10. 14:00 660 m 8/8 8/8 - - -
Do, 18.10. 8:00 540 m 8/8 7/8 - - -
Do, 18.10. 2:00 2400 m 4/8 - - - -
Mi, 17.10. 20:00 7200 m 8/8 0/8 - - -
Ortszeit Bedeckungsgrad in Achtel und Wolkenuntergrenze
Fr, 19.10. 15:00 keine Wolken
Fr, 19.10. 14:50 keine Wolken
Fr, 19.10. 14:40 1(1080m)
Fr, 19.10. 14:30 6(990m)
Fr, 19.10. 14:20 6(990m)
Fr, 19.10. 14:10 8(960m)
Fr, 19.10. 14:00 7(960m)
Fr, 19.10. 13:30 4(870m) 5(1020m)
Fr, 19.10. 13:00 3(840m)
Fr, 19.10. 12:30 2(1020m)
Fr, 19.10. 12:00 4(1020m)
Ortszeit Luftdruck NN (hPa) Tendenz (hPa in 3 Std.)
Fr, 19.10. 14:00 1027 - 0,7
Fr, 19.10. 8:00 1026 + 0,3
Fr, 19.10. 2:00 1026 - 0,2
Do, 18.10. 20:00 1025 + 1,6
Do, 18.10. 14:00 1023 + 0,5
Do, 18.10. 8:00 1021 + 0,6
Do, 18.10. 2:00 1020 + 0,2
Mi, 17.10. 20:00 1019 + 0,4
Ortszeit Luftdruck NN (hPa) Tendenz (hPa in 3 Std.)
Fr, 19.10. 15:00 1026 - 1,0
Fr, 19.10. 14:50 1026 keine Meldung
Fr, 19.10. 14:40 1026 keine Meldung
Fr, 19.10. 14:30 1026 - 0,8
Fr, 19.10. 14:20 1026 keine Meldung
Fr, 19.10. 14:10 1026 keine Meldung
Fr, 19.10. 14:00 1027 - 0,7
Fr, 19.10. 13:30 1027 - 0,4
Fr, 19.10. 13:00 1027 0,0
Fr, 19.10. 12:30 1027 + 0,3
Fr, 19.10. 12:00 1027 + 0,5
Ortszeit Schneehöhe (cm)
Fr, 19.10. 14:00 0
Fr, 19.10. 8:00 0
Fr, 19.10. 2:00 0
Do, 18.10. 20:00 0
Do, 18.10. 14:00 0
Do, 18.10. 8:00 0
Do, 18.10. 2:00 0
Mi, 17.10. 20:00 0
Ortszeit Schneehöhe (cm)
Fr, 19.10. 15:00 0
Fr, 19.10. 14:50 0
Fr, 19.10. 14:40 0
Fr, 19.10. 14:30 0
Fr, 19.10. 14:20 0
Fr, 19.10. 14:10 0
Fr, 19.10. 14:00 0
Fr, 19.10. 13:30 0
Fr, 19.10. 13:00 0
Fr, 19.10. 12:30 0
Fr, 19.10. 12:00 0
Link zu dieser Seite / Seite empfehlen

Das Wetter in ...